Time;durP1;ratioP1;P1;durP2;ratioP2;P2;SDS_P1;SDS_P2;PMS_P1;PMS_P2;Temp;Humidity;BMP_temperature;BMP_pressure;BME280_temperature;BME280_humidity;BME280_pressure;Samples;Min_cycle;Max_cycle;Signal;HPM_P1;HPM_P2
2023/11/25 00:00:54;;;;;;;34.97;18.10;;;;;;;-4.75;63.12;96610.34;5054306;28;20032;-62
2023/11/25 00:03:20;;;;;;;34.15;18.83;;;;;;;-4.64;63.27;96649.59;5054184;28;20029;-61
2023/11/25 00:05:46;;;;;;;35.58;17.10;;;;;;;-4.77;64.31;96630.50;5054385;28;20033;-63
2023/11/25 00:08:11;;;;;;;32.28;17.35;;;;;;;-4.90;64.11;96633.97;5045433;28;20025;-62
2023/11/25 00:10:38;;;;;;;31.45;15.73;;;;;;;-4.72;64.20;96638.00;5033782;28;20414;-58
2023/11/25 00:13:03;;;;;;;33.33;17.05;;;;;;;-4.81;65.06;96644.69;5034523;28;20029;-63
2023/11/25 00:15:29;;;;;;;34.72;17.08;;;;;;;-4.78;64.60;96628.81;5034365;28;20055;-64
2023/11/25 00:17:55;;;;;;;30.83;15.40;;;;;;;-4.56;64.04;96641.22;5046084;28;20032;-63
2023/11/25 00:20:23;;;;;;;34.53;17.63;;;;;;;-4.83;64.15;96603.03;5053719;28;20047;-60
2023/11/25 00:22:49;;;;;;;27.58;13.07;;;;;;;-4.68;64.22;96652.50;5046146;28;20068;-62
2023/11/25 00:25:15;;;;;;;30.60;14.48;;;;;;;-4.64;63.79;96656.56;5032547;28;20033;-62
2023/11/25 00:27:42;;;;;;;28.50;15.50;;;;;;;-4.80;64.68;96644.59;5033896;28;20077;-62
2023/11/25 00:30:09;;;;;;;30.70;14.98;;;;;;;-4.81;64.55;96635.13;5033926;28;20029;-60
2023/11/25 00:32:37;;;;;;;33.72;16.40;;;;;;;-4.79;64.53;96645.44;5034005;28;20083;-64
2023/11/25 00:35:07;;;;;;;35.75;15.68;;;;;;;-4.80;65.14;96665.50;5033084;28;20030;-63
2023/11/25 00:37:34;;;;;;;30.35;15.43;;;;;;;-4.68;64.65;96662.94;5040357;28;20084;-62
2023/11/25 00:40:00;;;;;;;28.40;15.40;;;;;;;-4.68;64.38;96652.50;5052126;28;20075;-62
2023/11/25 00:42:26;;;;;;;29.20;13.50;;;;;;;-4.63;64.74;96658.25;5053479;28;20068;-63
2023/11/25 00:44:52;;;;;;;27.55;14.77;;;;;;;-4.57;64.52;96655.22;5053560;28;20119;-60
2023/11/25 00:47:19;;;;;;;29.80;15.15;;;;;;;-4.69;65.21;96651.69;5050986;28;20045;-63
2023/11/25 00:49:48;;;;;;;29.17;14.40;;;;;;;-4.62;64.41;96646.84;5052797;28;20032;-63
2023/11/25 00:52:14;;;;;;;30.83;14.70;;;;;;;-4.56;64.27;96662.13;5053417;28;20040;-63
2023/11/25 00:54:39;;;;;;;28.38;13.13;;;;;;;-4.60;64.39;96652.78;5053853;28;20037;-61
2023/11/25 00:57:05;;;;;;;27.02;14.20;;;;;;;-4.73;64.85;96665.88;5053840;28;20063;-63
2023/11/25 00:59:31;;;;;;;28.80;14.23;;;;;;;-4.79;64.91;96659.31;5052555;28;20467;-63
2023/11/25 01:01:56;;;;;;;29.60;14.95;;;;;;;-4.82;65.09;96669.97;5052944;28;20028;-63
2023/11/25 01:04:22;;;;;;;29.35;15.18;;;;;;;-4.70;64.64;96672.66;5036908;28;20025;-63
2023/11/25 01:06:48;;;;;;;28.20;14.77;;;;;;;-4.70;64.56;96659.63;5032441;28;20038;-64
2023/11/25 01:09:16;;;;;;;28.17;14.88;;;;;;;-4.76;65.34;96653.03;5032327;28;20030;-63
2023/11/25 01:11:49;;;;;;;30.58;14.38;;;;;;;-4.57;64.67;96664.81;5032749;28;20029;-61
2023/11/25 01:14:14;;;;;;;29.77;14.63;;;;;;;-4.56;64.40;96675.16;5032573;28;20041;-64
2023/11/25 01:16:40;;;;;;;28.55;14.40;;;;;;;-4.92;64.60;96616.75;5032939;28;20029;-65
2023/11/25 01:19:06;;;;;;;28.27;14.57;;;;;;;-4.64;64.47;96680.06;5045120;28;20061;-63
2023/11/25 01:21:32;;;;;;;26.08;13.70;;;;;;;-4.53;64.43;96682.78;5052869;28;20045;-62
2023/11/25 01:23:58;;;;;;;30.55;13.63;;;;;;;-4.44;64.08;96681.31;5052826;28;20094;-63
2023/11/25 01:26:23;;;;;;;28.23;13.88;;;;;;;-4.54;63.91;96681.13;5051252;28;20439;-62
2023/11/25 01:28:49;;;;;;;27.38;13.27;;;;;;;-4.57;63.77;96670.88;5036303;28;20163;-62
2023/11/25 01:31:15;;;;;;;26.65;14.60;;;;;;;-4.69;64.19;96679.56;5033217;28;20333;-62
2023/11/25 01:33:40;;;;;;;30.02;14.35;;;;;;;-4.82;63.96;96674.34;5043856;28;20067;-64
2023/11/25 01:36:10;;;;;;;30.65;15.00;;;;;;;-5.05;64.59;96643.69;5052513;28;20040;-63
2023/11/25 01:38:39;;;;;;;28.77;14.60;;;;;;;-4.77;64.86;96688.75;5052804;28;20040;-63
2023/11/25 01:41:06;;;;;;;27.95;14.02;;;;;;;-4.76;65.17;96687.81;5052820;28;20099;-61
2023/11/25 01:43:32;;;;;;;30.30;14.35;;;;;;;-4.54;64.11;96703.75;5052494;28;20912;-61
2023/11/25 01:45:59;;;;;;;25.15;12.77;;;;;;;-4.38;63.53;96693.06;5052540;28;20036;-62
2023/11/25 01:48:28;;;;;;;35.55;15.35;;;;;;;-4.67;63.56;96688.13;5040782;28;20029;-62
2023/11/25 01:50:54;;;;;;;21.35;10.60;;;;;;;-4.49;63.06;96707.72;5037826;28;20025;-63
2023/11/25 01:53:20;;;;;;;29.48;14.38;;;;;;;-4.71;63.98;96703.16;5052184;28;20037;-62
2023/11/25 01:55:48;;;;;;;29.58;14.43;;;;;;;-4.85;64.42;96711.09;5052043;28;20048;-63
2023/11/25 01:58:17;;;;;;;29.73;14.10;;;;;;;-4.78;64.45;96710.59;5052252;28;20126;-57
2023/11/25 02:00:44;;;;;;;27.63;14.23;;;;;;;-5.00;64.94;96705.97;5047715;28;20111;-60
2023/11/25 02:03:12;;;;;;;27.30;13.77;;;;;;;-4.80;64.01;96702.03;5033738;28;20056;-65
2023/11/25 02:05:38;;;;;;;26.85;14.80;;;;;;;-4.98;65.00;96713.72;5031392;28;20029;-60
2023/11/25 02:08:07;;;;;;;30.45;14.20;;;;;;;-4.93;64.48;96716.84;5032243;28;20480;-63
2023/11/25 02:10:34;;;;;;;27.08;13.18;;;;;;;-5.02;64.59;96701.81;5032627;28;20033;-61
2023/11/25 02:13:02;;;;;;;29.30;12.95;;;;;;;-4.86;64.69;96723.31;5032170;28;20026;-60
2023/11/25 02:15:30;;;;;;;33.00;14.82;;;;;;;-4.77;64.34;96722.69;5032166;28;20039;-62
2023/11/25 02:17:57;;;;;;;27.83;14.65;;;;;;;-4.94;64.69;96721.25;5042390;28;20021;-62
2023/11/25 02:20:40;;;;;;;30.70;14.32;;;;;;;-5.10;65.47;96710.97;5050879;28;20475;-63
2023/11/25 02:23:16;;;;;;;22.75;11.07;;;;;;;-4.69;64.20;96734.38;5051999;28;20483;-62
2023/11/25 02:25:48;;;;;;;27.92;13.05;;;;;;;-4.78;64.00;96734.06;5039933;28;20143;-62
2023/11/25 02:28:19;;;;;;;30.50;14.43;;;;;;;-4.87;64.63;96742.50;5032251;28;20091;-58
2023/11/25 02:30:48;;;;;;;26.50;14.02;;;;;;;-4.78;63.69;96734.06;5032185;28;20049;-60
2023/11/25 02:33:15;;;;;;;25.90;13.57;;;;;;;-4.95;64.92;96739.59;5047873;28;20452;-63
2023/11/25 02:35:46;;;;;;;28.00;14.55;;;;;;;-4.94;65.30;96746.47;5051411;28;20035;-63
2023/11/25 02:38:12;;;;;;;30.15;14.23;;;;;;;-4.88;64.66;96742.63;5051383;28;20047;-62
2023/11/25 02:40:39;;;;;;;28.38;14.88;;;;;;;-4.81;64.31;96744.72;5051225;28;20029;-63
2023/11/25 02:43:07;;;;;;;20.08;8.90;;;;;;;-4.72;64.47;96750.25;5051457;28;20037;-63
2023/11/25 02:45:33;;;;;;;28.58;14.90;;;;;;;-4.84;64.46;96757.97;5050674;28;20028;-63
2023/11/25 02:47:59;;;;;;;29.10;14.07;;;;;;;-4.94;65.62;96751.69;5049406;28;20059;-61
2023/11/25 02:50:25;;;;;;;31.63;15.05;;;;;;;-4.92;65.23;96760.25;5051359;28;20029;-62
2023/11/25 02:52:51;;;;;;;31.17;15.00;;;;;;;-4.76;65.16;96754.84;5051223;28;20503;-62
2023/11/25 02:55:17;;;;;;;38.67;17.33;;;;;;;-4.85;65.42;96758.91;5050912;28;20099;-57
2023/11/25 02:57:44;;;;;;;31.20;13.45;;;;;;;-4.67;64.65;96742.94;5051772;28;20403;-65
2023/11/25 03:00:45;;;;;;;38.85;17.30;;;;;;;-4.67;65.01;96767.28;5051149;28;20043;-64
2023/11/25 03:03:13;;;;;;;34.60;17.50;;;;;;;-4.65;65.79;96767.16;5047188;28;20052;-62
2023/11/25 03:05:42;;;;;;;36.95;18.05;;;;;;;-4.66;65.21;96766.34;5051041;28;20044;-62
2023/11/25 03:08:12;;;;;;;30.85;16.17;;;;;;;-4.64;66.05;96768.81;5050551;28;20310;-61
2023/11/25 03:10:41;;;;;;;33.92;16.40;;;;;;;-4.59;65.88;96777.19;5050771;28;20064;-63
2023/11/25 03:13:11;;;;;;;26.98;13.85;;;;;;;-4.32;64.87;96781.47;5038641;28;20119;-64
2023/11/25 03:15:38;;;;;;;30.48;15.55;;;;;;;-4.43;64.12;96787.44;5034838;28;20037;-63
2023/11/25 03:18:08;;;;;;;31.00;15.63;;;;;;;-4.60;64.67;96785.94;5034760;28;20025;-65
2023/11/25 03:20:35;;;;;;;34.00;15.38;;;;;;;-4.74;65.05;96783.47;5034348;28;20082;-63
2023/11/25 03:23:03;;;;;;;28.20;14.85;;;;;;;-4.57;64.36;96788.38;5034298;28;20029;-63
2023/11/25 03:25:30;;;;;;;29.52;13.25;;;;;;;-4.74;64.84;96789.50;5034560;28;20451;-64
2023/11/25 03:27:57;;;;;;;28.77;12.10;;;;;;;-4.59;64.18;96805.06;5035487;28;20427;-64
2023/11/25 03:30:26;;;;;;;30.15;13.93;;;;;;;-4.85;65.11;96798.03;5032987;28;20048;-64
2023/11/25 03:32:53;;;;;;;26.95;11.57;;;;;;;-4.91;63.72;96752.34;5034195;28;20057;-64
2023/11/25 03:35:21;;;;;;;19.40;7.45;;;;;;;-4.55;63.43;96803.94;5034839;28;20048;-60
2023/11/25 03:37:47;;;;;;;28.73;12.65;;;;;;;-4.68;62.78;96811.75;5035899;28;20048;-64
2023/11/25 03:40:15;;;;;;;25.23;12.80;;;;;;;-5.15;64.27;96796.53;5034585;28;20041;-64
2023/11/25 03:42:44;;;;;;;28.90;12.98;;;;;;;-5.08;64.05;96818.66;5017969;28;20022;-63
2023/11/25 03:45:13;;;;;;;25.05;12.85;;;;;;;-5.28;65.18;96811.34;5034267;28;20091;-63
2023/11/25 03:47:46;;;;;;;23.20;12.73;;;;;;;-5.15;65.81;96830.44;5034959;28;20436;-63
2023/11/25 03:50:13;;;;;;;13.18;6.55;;;;;;;-5.20;65.13;96788.19;5034696;28;20099;-63
2023/11/25 03:52:42;;;;;;;24.92;11.77;;;;;;;-4.72;63.92;96841.63;5035570;28;20033;-63
2023/11/25 03:55:09;;;;;;;25.92;12.82;;;;;;;-4.94;64.73;96841.28;5035017;28;20060;-63
2023/11/25 03:57:39;;;;;;;25.30;12.63;;;;;;;-5.06;65.17;96848.13;5034994;28;20029;-63
2023/11/25 04:00:14;;;;;;;22.50;10.45;;;;;;;-4.76;64.21;96848.81;5035097;28;20435;-62
2023/11/25 04:02:45;;;;;;;22.48;11.40;;;;;;;-4.73;63.06;96837.34;5034531;28;20044;-63
2023/11/25 04:05:11;;;;;;;19.15;10.45;;;;;;;-4.87;63.58;96841.69;5047038;28;20029;-64
2023/11/25 04:07:38;;;;;;;22.77;11.38;;;;;;;-5.00;63.24;96856.50;5054251;28;20029;-63
2023/11/25 04:10:15;;;;;;;21.98;11.18;;;;;;;-5.00;63.76;96866.94;5052732;28;20087;-62
2023/11/25 04:12:49;;;;;;;23.17;11.38;;;;;;;-5.06;63.51;96858.56;5043024;28;20543;-64
2023/11/25 04:15:19;;;;;;;21.85;10.50;;;;;;;-5.14;64.21;96866.03;5044617;28;20032;-64
2023/11/25 04:17:45;;;;;;;23.05;11.57;;;;;;;-5.07;63.34;96871.69;5043778;28;20064;-62
2023/11/25 04:20:14;;;;;;;22.15;11.02;;;;;;;-5.20;63.36;96862.03;5043136;28;20442;-61
2023/11/25 04:22:44;;;;;;;25.05;10.70;;;;;;;-5.06;63.27;96882.06;5042003;28;20021;-62
2023/11/25 04:25:14;;;;;;;22.25;10.88;;;;;;;-5.09;63.04;96882.22;5039528;28;20029;-64
2023/11/25 04:27:46;;;;;;;26.60;12.18;;;;;;;-5.15;63.88;96893.06;5042489;28;20052;-62
2023/11/25 04:30:13;;;;;;;22.40;11.35;;;;;;;-5.27;63.67;96897.28;5042554;28;20044;-63
2023/11/25 04:32:40;;;;;;;21.08;9.93;;;;;;;-5.24;64.58;96883.22;5043451;28;20029;-62
2023/11/25 04:35:06;;;;;;;23.27;12.40;;;;;;;-5.12;63.72;96899.88;5044296;28;20037;-62
2023/11/25 04:37:33;;;;;;;26.92;12.02;;;;;;;-5.08;63.77;96898.72;5042706;28;20025;-62
2023/11/25 04:39:59;;;;;;;22.33;10.88;;;;;;;-5.14;63.98;96886.09;5042026;28;20032;-61
2023/11/25 04:42:25;;;;;;;26.27;12.45;;;;;;;-5.16;64.19;96896.59;5042506;28;20057;-57
2023/11/25 04:44:51;;;;;;;21.65;11.18;;;;;;;-5.17;64.20;96901.94;5042879;28;20407;-59
2023/11/25 04:47:16;;;;;;;24.63;11.63;;;;;;;-4.88;63.48;96907.03;5043004;28;20422;-64
2023/11/25 04:49:42;;;;;;;23.67;10.45;;;;;;;-4.87;63.42;96900.88;5041621;28;20250;-64
2023/11/25 04:52:08;;;;;;;24.25;12.30;;;;;;;-5.13;64.09;96906.84;5044213;28;20055;-60
2023/11/25 04:54:34;;;;;;;22.80;11.65;;;;;;;-5.19;64.98;96904.63;5042724;28;20049;-57
2023/11/25 04:57:01;;;;;;;23.10;11.52;;;;;;;-5.14;64.05;96915.59;5042757;28;20108;-64
2023/11/25 04:59:27;;;;;;;20.33;8.60;;;;;;;-4.99;64.27;96916.38;5043771;28;20040;-63
2023/11/25 05:01:53;;;;;;;19.45;10.35;;;;;;;-5.10;63.18;96870.13;5042602;28;20018;-60
2023/11/25 05:04:20;;;;;;;21.77;11.07;;;;;;;-5.05;63.38;96922.84;5050732;28;20079;-66
2023/11/25 05:06:46;;;;;;;17.40;7.05;;;;;;;-4.90;63.50;96934.09;5053112;28;20025;-66
2023/11/25 05:09:13;;;;;;;22.25;10.98;;;;;;;-4.84;62.70;96947.66;5053158;28;20044;-63
2023/11/25 05:11:40;;;;;;;21.70;10.80;;;;;;;-5.09;63.03;96954.44;5053467;28;20451;-66
2023/11/25 05:14:06;;;;;;;23.33;11.57;;;;;;;-5.06;63.26;96967.28;5053421;28;20107;-65
2023/11/25 05:16:31;;;;;;;20.70;11.40;;;;;;;-5.19;63.92;96962.84;5052076;28;20087;-63
2023/11/25 05:18:57;;;;;;;23.35;11.20;;;;;;;-5.22;63.91;96967.44;5048652;28;20071;-65
2023/11/25 05:21:23;;;;;;;17.25;9.90;;;;;;;-5.19;63.94;96965.44;5034312;28;20029;-63
2023/11/25 05:23:49;;;;;;;20.88;10.57;;;;;;;-5.11;64.25;96964.97;5034127;28;20033;-66
2023/11/25 05:26:16;;;;;;;20.52;10.85;;;;;;;-5.01;63.91;96972.22;5043037;28;20551;-66
2023/11/25 05:28:41;;;;;;;23.42;11.50;;;;;;;-4.79;63.25;96956.88;5050945;28;20041;-64
2023/11/25 05:31:07;;;;;;;21.67;10.88;;;;;;;-4.90;63.85;96969.75;5046582;28;20083;-64
2023/11/25 05:33:33;;;;;;;17.67;8.23;;;;;;;-4.76;63.62;96979.31;5032030;28;20071;-66
2023/11/25 05:36:00;;;;;;;19.30;11.10;;;;;;;-4.55;62.59;96992.78;5033442;28;20052;-62
2023/11/25 05:38:28;;;;;;;20.15;8.93;;;;;;;-4.59;62.20;96986.06;5048442;28;20044;-61
2023/11/25 05:40:54;;;;;;;22.40;10.82;;;;;;;-4.73;63.14;97007.00;5045872;28;20034;-65
2023/11/25 05:43:24;;;;;;;24.67;11.05;;;;;;;-4.83;63.53;97020.63;5036613;28;20056;-67
2023/11/25 05:45:49;;;;;;;13.85;6.30;;;;;;;-4.56;62.85;97008.53;5049440;28;20536;-59
2023/11/25 05:48:17;;;;;;;20.27;10.88;;;;;;;-4.70;62.85;97012.88;5050108;28;20107;-73
2023/11/25 05:50:42;;;;;;;20.02;10.32;;;;;;;-4.83;62.74;96978.88;5033868;28;20026;-62
2023/11/25 05:53:08;;;;;;;24.92;11.38;;;;;;;-4.67;62.85;97024.88;5030962;28;20049;-63
2023/11/25 05:55:34;;;;;;;23.88;11.52;;;;;;;-4.63;63.31;97035.03;5039108;28;20072;-63
2023/11/25 05:57:59;;;;;;;20.73;10.73;;;;;;;-4.52;62.79;97029.13;5040499;28;20398;-63
2023/11/25 06:00:25;;;;;;;20.88;11.18;;;;;;;-4.50;63.02;97019.44;5044657;28;20061;-62
2023/11/25 06:02:52;;;;;;;22.55;11.60;;;;;;;-4.42;62.85;97049.44;5040621;28;20444;-63
2023/11/25 06:05:18;;;;;;;28.17;12.02;;;;;;;-4.40;63.03;97045.78;5045459;28;20040;-61
2023/11/25 06:07:44;;;;;;;22.15;11.30;;;;;;;-4.42;62.75;97028.53;5033734;28;20038;-62
2023/11/25 06:10:10;;;;;;;23.30;11.05;;;;;;;-4.32;62.75;97055.75;5040615;28;20036;-62
2023/11/25 06:12:37;;;;;;;26.50;11.75;;;;;;;-4.27;62.88;97058.88;5045755;28;20094;-62
2023/11/25 06:15:04;;;;;;;19.40;9.35;;;;;;;-3.96;61.53;97064.72;5049977;28;20351;-70
2023/11/25 06:17:32;;;;;;;26.23;12.38;;;;;;;-4.42;61.77;97044.19;5031777;28;20443;-64
2023/11/25 06:19:58;;;;;;;19.90;8.80;;;;;;;-4.21;62.12;97082.00;5035796;28;20036;-62
2023/11/25 06:22:24;;;;;;;23.85;11.25;;;;;;;-4.65;61.91;97043.91;5033607;28;20033;-62
2023/11/25 06:24:49;;;;;;;18.33;8.60;;;;;;;-4.21;61.73;97084.63;5046687;28;20093;-58
2023/11/25 06:27:19;;;;;;;24.63;12.35;;;;;;;-4.30;60.73;97087.81;5041210;28;20056;-62
2023/11/25 06:29:44;;;;;;;26.10;11.35;;;;;;;-4.41;61.33;97087.66;5046431;28;20071;-63
2023/11/25 06:32:10;;;;;;;22.77;11.55;;;;;;;-4.58;61.47;97093.97;5032046;28;20068;-62
2023/11/25 06:34:36;;;;;;;25.88;11.57;;;;;;;-4.64;62.39;97114.31;5046835;28;20436;-62
2023/11/25 06:37:01;;;;;;;18.98;10.60;;;;;;;-4.63;62.17;97102.94;5040516;28;20336;-62
2023/11/25 06:39:31;;;;;;;31.45;12.68;;;;;;;-4.46;62.01;97127.16;5034974;28;20539;-63
2023/11/25 06:41:58;;;;;;;21.38;11.07;;;;;;;-4.32;61.80;97123.66;5042195;28;20025;-63
2023/11/25 06:44:24;;;;;;;21.45;11.38;;;;;;;-4.16;61.79;97114.81;5033696;28;20093;-62
2023/11/25 06:46:50;;;;;;;23.92;11.65;;;;;;;-3.97;61.41;97127.56;5037909;28;20120;-60
2023/11/25 06:49:15;;;;;;;22.08;11.30;;;;;;;-3.91;60.22;97125.38;5041462;28;20036;-59
2023/11/25 06:51:41;;;;;;;23.13;11.82;;;;;;;-3.86;60.03;97134.69;5052594;28;20025;-62
2023/11/25 06:54:11;;;;;;;23.02;11.82;;;;;;;-3.99;59.97;97134.63;5044349;28;20025;-62
2023/11/25 06:56:38;;;;;;;24.50;11.98;;;;;;;-3.98;60.38;97149.38;5037154;28;20060;-63
2023/11/25 06:59:05;;;;;;;21.75;11.57;;;;;;;-4.14;60.32;97133.84;5038176;28;20068;-62
2023/11/25 07:01:34;;;;;;;23.15;11.98;;;;;;;-4.00;60.58;97169.56;5036845;28;20113;-62
2023/11/25 07:04:03;;;;;;;23.60;12.20;;;;;;;-3.91;60.75;97163.75;5047857;28;20474;-63
2023/11/25 07:06:29;;;;;;;25.58;11.65;;;;;;;-3.75;60.58;97171.44;5035343;28;20029;-61
2023/11/25 07:08:55;;;;;;;22.08;11.57;;;;;;;-3.55;59.85;97164.06;5036609;28;20364;-61
2023/11/25 07:11:23;;;;;;;26.65;12.35;;;;;;;-3.50;59.36;97168.03;5035521;28;20034;-58
2023/11/25 07:13:48;;;;;;;23.55;11.70;;;;;;;-3.47;58.73;97180.06;5043171;28;20106;-58
2023/11/25 07:16:14;;;;;;;22.23;12.45;;;;;;;-3.74;59.00;97136.50;5054184;28;20436;-60
2023/11/25 07:18:44;;;;;;;25.00;12.90;;;;;;;-3.51;58.27;97191.69;5040005;28;20037;-62
2023/11/25 07:21:12;;;;;;;22.88;12.18;;;;;;;-3.61;59.43;97200.16;5043304;28;20037;-62
2023/11/25 07:23:42;;;;;;;26.27;13.23;;;;;;;-3.57;59.30;97202.56;5053156;28;20090;-62
2023/11/25 07:26:12;;;;;;;26.30;13.75;;;;;;;-3.51;59.01;97204.78;5053111;28;20041;-61
2023/11/25 07:28:38;;;;;;;22.17;12.35;;;;;;;-3.82;59.01;97162.31;5053331;28;20063;-64
2023/11/25 07:31:04;;;;;;;28.23;13.82;;;;;;;-3.55;59.08;97211.16;5052131;28;20057;-62
2023/11/25 07:33:31;;;;;;;28.52;13.70;;;;;;;-3.36;59.38;97222.09;5051510;28;20088;-64
2023/11/25 07:35:57;;;;;;;24.55;13.10;;;;;;;-3.37;58.77;97228.25;5050966;28;20056;-63
2023/11/25 07:38:24;;;;;;;27.33;14.75;;;;;;;-3.22;58.66;97243.88;5050461;28;20102;-63
2023/11/25 07:40:50;;;;;;;29.38;15.52;;;;;;;-3.19;58.74;97234.03;5038742;28;20115;-62
2023/11/25 07:43:16;;;;;;;27.00;15.40;;;;;;;-3.46;58.13;97203.53;5052839;28;20447;-65
2023/11/25 07:45:43;;;;;;;25.98;13.85;;;;;;;-3.25;58.02;97271.09;5054133;28;20356;-65
2023/11/25 07:48:10;;;;;;;30.95;13.95;;;;;;;-3.26;58.06;97285.09;5054919;28;20114;-64
2023/11/25 07:50:37;;;;;;;27.83;13.70;;;;;;;-3.23;58.32;97281.44;5043201;28;20444;-64
2023/11/25 07:53:03;;;;;;;27.42;13.68;;;;;;;-3.20;58.29;97287.34;5037464;28;20448;-63
2023/11/25 07:55:28;;;;;;;27.10;14.23;;;;;;;-3.14;57.87;97299.16;5053922;28;20040;-65
2023/11/25 07:57:54;;;;;;;24.50;13.18;;;;;;;-3.13;57.47;97298.25;5052845;28;20032;-64
2023/11/25 08:00:25;;;;;;;22.27;12.85;;;;;;;-3.15;57.22;97292.25;5053131;28;20041;-64
2023/11/25 08:02:55;;;;;;;24.35;12.68;;;;;;;-3.11;57.43;97319.06;5054159;28;20032;-64
2023/11/25 08:05:23;;;;;;;24.70;12.38;;;;;;;-3.10;57.52;97326.84;5053805;28;20036;-65
2023/11/25 08:07:52;;;;;;;26.83;12.40;;;;;;;-3.07;57.74;97331.00;5047729;28;20040;-65
2023/11/25 08:10:19;;;;;;;26.67;12.75;;;;;;;-3.07;56.92;97324.00;5033537;28;20365;-62
2023/11/25 08:12:45;;;;;;;29.67;13.45;;;;;;;-3.07;57.00;97336.25;5034857;28;20037;-61
2023/11/25 08:15:14;;;;;;;30.40;13.80;;;;;;;-3.05;56.64;97339.59;5033499;28;20111;-60
2023/11/25 08:17:42;;;;;;;27.25;14.75;;;;;;;-3.28;56.96;97338.47;5033639;28;20095;-59
2023/11/25 08:20:11;;;;;;;30.75;16.10;;;;;;;-3.33;57.45;97339.63;5046954;28;20112;-60
2023/11/25 08:22:41;;;;;;;31.60;14.15;;;;;;;-3.28;57.96;97359.41;5039050;28;20128;-60
2023/11/25 08:25:10;;;;;;;33.00;16.23;;;;;;;-3.27;58.07;97371.56;5053025;28;20033;-63
2023/11/25 08:27:37;;;;;;;36.95;16.40;;;;;;;-3.24;57.91;97387.06;5040377;28;20049;-64
2023/11/25 08:30:08;;;;;;;31.23;17.02;;;;;;;-3.12;57.89;97391.53;5032688;28;20037;-63
2023/11/25 08:32:43;;;;;;;34.40;17.20;;;;;;;-2.92;57.77;97384.16;5033882;28;20037;-63
2023/11/25 08:35:10;;;;;;;28.88;15.23;;;;;;;-2.78;58.14;97391.94;5035179;28;20042;-62
2023/11/25 08:37:38;;;;;;;28.10;15.43;;;;;;;-2.72;57.63;97368.91;5039642;28;20033;-67
2023/11/25 08:40:06;;;;;;;29.00;15.30;;;;;;;-2.56;57.23;97384.44;5053516;28;20171;-64
2023/11/25 08:42:32;;;;;;;33.53;17.00;;;;;;;-2.52;56.52;97388.56;5051797;28;20108;-63
2023/11/25 08:45:01;;;;;;;28.55;14.57;;;;;;;-2.53;56.11;97392.09;5051690;28;20037;-63
2023/11/25 08:47:32;;;;;;;33.47;16.05;;;;;;;-2.65;56.33;97385.94;5053095;28;20037;-62
2023/11/25 08:49:57;;;;;;;30.77;15.45;;;;;;;-2.65;56.67;97404.25;5052937;28;20040;-64
2023/11/25 08:52:23;;;;;;;28.95;14.43;;;;;;;-2.78;56.93;97373.63;5053260;28;20029;-63
2023/11/25 08:54:49;;;;;;;27.38;14.93;;;;;;;-2.51;56.55;97412.03;5053108;28;20036;-63
2023/11/25 08:57:16;;;;;;;29.52;14.30;;;;;;;-2.38;56.53;97413.84;5052840;28;20037;-61
2023/11/25 08:59:44;;;;;;;29.85;14.60;;;;;;;-2.23;56.23;97431.16;5046480;28;20045;-62
2023/11/25 09:02:12;;;;;;;28.45;14.75;;;;;;;-2.11;56.10;97421.63;5032924;28;20334;-62
2023/11/25 09:04:42;;;;;;;26.92;14.02;;;;;;;-1.84;55.79;97438.22;5051527;28;20029;-62
2023/11/25 09:07:13;;;;;;;28.95;15.30;;;;;;;-1.70;55.55;97456.47;5052842;28;20096;-61
2023/11/25 09:09:39;;;;;;;27.80;14.30;;;;;;;-1.61;55.12;97449.75;5053057;28;20033;-61
2023/11/25 09:12:05;;;;;;;25.48;14.35;;;;;;;-1.49;54.16;97462.03;5052704;28;20024;-63
2023/11/25 09:14:31;;;;;;;26.52;14.55;;;;;;;-1.39;54.48;97456.97;5052846;28;20040;-64
2023/11/25 09:16:56;;;;;;;26.17;14.30;;;;;;;-1.34;53.83;97462.75;5052710;28;20266;-62
2023/11/25 09:19:23;;;;;;;30.73;14.70;;;;;;;-1.32;53.29;97455.59;5040070;28;20448;-62
2023/11/25 09:21:49;;;;;;;27.23;14.77;;;;;;;-1.36;53.72;97464.63;5034089;28;20044;-62
2023/11/25 09:24:15;;;;;;;27.52;15.50;;;;;;;-1.39;53.61;97462.22;5031797;28;20037;-62
2023/11/25 09:26:40;;;;;;;28.65;15.82;;;;;;;-1.51;53.27;97457.81;5031525;28;20415;-58
2023/11/25 09:29:06;;;;;;;30.88;16.25;;;;;;;-1.60;54.39;97468.03;5032831;28;20437;-62
2023/11/25 09:31:32;;;;;;;31.25;16.35;;;;;;;-1.47;54.48;97485.53;5032693;28;20045;-60
2023/11/25 09:33:59;;;;;;;31.17;16.50;;;;;;;-1.36;54.05;97496.13;5032363;28;20469;-62
2023/11/25 09:36:25;;;;;;;31.30;16.17;;;;;;;-1.27;53.94;97491.19;5033039;28;20415;-60
2023/11/25 09:38:53;;;;;;;29.50;16.08;;;;;;;-1.40;53.55;97452.69;5044869;28;20121;-62
2023/11/25 09:41:18;;;;;;;32.10;15.90;;;;;;;-1.14;52.93;97494.66;5032496;28;20021;-61
2023/11/25 09:43:45;;;;;;;34.78;17.40;;;;;;;-1.06;53.55;97513.31;5032543;28;20423;-62
2023/11/25 09:46:11;;;;;;;30.98;16.35;;;;;;;-1.01;53.93;97519.06;5032124;28;20053;-57
2023/11/25 09:48:36;;;;;;;31.52;16.02;;;;;;;-1.02;53.40;97527.91;5032317;28;20379;-61
2023/11/25 09:51:05;;;;;;;29.42;16.52;;;;;;;-0.92;54.49;97533.34;5033279;28;20029;-60
2023/11/25 09:53:32;;;;;;;32.70;17.27;;;;;;;-0.86;53.08;97537.34;5051991;28;20029;-54
2023/11/25 09:56:02;;;;;;;29.55;16.15;;;;;;;-0.78;53.76;97550.75;5051429;28;20410;-61
2023/11/25 09:58:30;;;;;;;30.40;15.95;;;;;;;-0.79;53.92;97564.03;5037197;28;20039;-63
2023/11/25 10:00:58;;;;;;;53.85;27.33;;;;;;;-0.92;53.36;97564.06;5031879;28;20080;-62
2023/11/25 10:03:28;;;;;;;40.65;22.83;;;;;;;-1.03;53.70;97568.25;5031845;28;20037;-60
2023/11/25 10:05:53;;;;;;;43.95;22.10;;;;;;;-1.12;54.11;97566.28;5031632;28;20033;-61
2023/11/25 10:08:19;;;;;;;32.95;17.58;;;;;;;-1.14;54.50;97591.81;5039135;28;20025;-58
2023/11/25 10:11:05;;;;;;;31.27;17.42;;;;;;;-1.11;55.09;97585.47;5042247;28;20037;-60
2023/11/25 10:13:38;;;;;;;30.02;17.27;;;;;;;-1.24;54.57;97591.59;5032336;28;20039;-58
2023/11/25 10:16:06;;;;;;;33.95;17.90;;;;;;;-1.31;54.49;97606.91;5048359;28;20025;-59
2023/11/25 10:18:34;;;;;;;32.28;17.35;;;;;;;-1.42;54.95;97605.97;5050386;28;20053;-62
2023/11/25 10:21:00;;;;;;;37.65;17.10;;;;;;;-1.50;55.00;97611.72;5051474;28;20043;-62
2023/11/25 10:23:27;;;;;;;34.10;17.63;;;;;;;-1.47;55.43;97616.75;5054331;28;20029;-60
2023/11/25 10:25:53;;;;;;;37.92;17.95;;;;;;;-1.55;55.15;97606.78;5055993;28;20087;-63
2023/11/25 10:28:25;;;;;;;34.38;18.23;;;;;;;-1.42;55.40;97616.47;5047181;28;20033;-61
2023/11/25 10:30:59;;;;;;;29.27;16.73;;;;;;;-1.35;55.14;97617.72;5036026;28;20034;-63
2023/11/25 10:33:27;;;;;;;36.67;17.05;;;;;;;-1.34;54.63;97633.38;5041869;28;20553;-58
2023/11/25 10:35:53;;;;;;;29.65;16.92;;;;;;;-1.30;55.21;97624.34;5048368;28;20440;-58
2023/11/25 10:38:22;;;;;;;33.53;16.67;;;;;;;-1.24;54.81;97622.25;5034943;28;20336;-59
2023/11/25 10:40:51;;;;;;;28.23;16.25;;;;;;;-1.20;54.56;97621.13;5035338;28;20123;-57
2023/11/25 10:43:18;;;;;;;33.90;16.45;;;;;;;-1.38;54.53;97594.31;5034541;28;20606;-58
2023/11/25 10:45:44;;;;;;;31.67;17.33;;;;;;;-1.14;54.99;97639.06;5035528;28;20064;-60
2023/11/25 10:48:11;;;;;;;35.60;17.98;;;;;;;-1.14;54.94;97644.31;5036304;28;20021;-60
2023/11/25 10:50:39;;;;;;;31.67;16.13;;;;;;;-1.15;54.53;97653.16;5036214;28;20431;-58
2023/11/25 10:53:05;;;;;;;33.03;18.42;;;;;;;-1.19;54.26;97654.31;5052948;28;20032;-61
2023/11/25 10:55:32;;;;;;;29.35;16.33;;;;;;;-1.25;55.00;97659.94;5053878;28;20056;-59
2023/11/25 10:58:00;;;;;;;32.50;17.02;;;;;;;-1.32;54.98;97663.00;5056114;28;20071;-59
2023/11/25 11:00:30;;;;;;;32.38;16.83;;;;;;;-1.38;55.44;97663.41;5055366;28;20120;-60
2023/11/25 11:02:57;;;;;;;32.85;16.98;;;;;;;-1.43;55.37;97670.75;5055191;28;20064;-57
2023/11/25 11:05:35;;;;;;;33.72;16.85;;;;;;;-1.48;55.06;97683.31;5055418;28;20039;-55
2023/11/25 11:08:17;;;;;;;29.63;16.50;;;;;;;-1.67;55.63;97674.06;5055783;28;20043;-59
2023/11/25 11:11:04;;;;;;;31.58;16.85;;;;;;;-1.64;55.07;97681.72;5053420;28;20044;-58
2023/11/25 11:13:35;;;;;;;32.22;16.88;;;;;;;-1.77;55.83;97689.53;5053238;28;20033;-58
2023/11/25 11:16:31;;;;;;;34.97;17.70;;;;;;;-1.79;55.98;97708.94;5055430;28;20057;-58
2023/11/25 11:18:59;;;;;;;36.08;17.27;;;;;;;-1.78;56.45;97723.72;5055455;28;20483;-59